createdAt,value
2018-01-11T00:00:39.654Z,12.52
2018-01-11T00:03:09.140Z,12.32
2018-01-11T00:05:38.626Z,13.52
2018-01-11T00:08:08.140Z,11.48
2018-01-11T00:10:37.618Z,13.02
2018-01-11T00:13:07.146Z,11.95
2018-01-11T00:15:36.615Z,13.50
2018-01-11T00:18:06.142Z,12.63
2018-01-11T00:20:35.607Z,12.73
2018-01-11T00:23:05.137Z,13.25
2018-01-11T00:25:34.721Z,12.80
2018-01-11T00:28:04.235Z,13.00
2018-01-11T00:30:33.715Z,13.05
2018-01-11T00:33:03.225Z,12.90
2018-01-11T00:35:32.711Z,13.35
2018-01-11T00:38:02.199Z,13.20
2018-01-11T00:40:31.742Z,13.65
2018-01-11T00:43:01.240Z,13.20
2018-01-11T00:45:30.759Z,14.48
2018-01-11T00:48:00.231Z,14.23
2018-01-11T00:50:29.724Z,15.20
2018-01-11T00:52:59.250Z,15.10
2018-01-11T00:55:28.773Z,14.68
2018-01-11T00:57:58.250Z,14.57
2018-01-11T01:00:27.770Z,13.50
2018-01-11T01:02:57.287Z,13.13
2018-01-11T01:05:26.795Z,14.50
2018-01-11T01:07:56.292Z,12.80
2018-01-11T01:10:25.781Z,11.95
2018-01-11T01:12:55.285Z,12.40
2018-01-11T01:15:24.809Z,12.80
2018-01-11T01:17:54.289Z,12.15
2018-01-11T01:20:23.794Z,13.10
2018-01-11T01:22:53.320Z,12.70
2018-01-11T01:25:22.845Z,11.55
2018-01-11T01:27:52.349Z,11.88
2018-01-11T01:30:21.842Z,13.57
2018-01-11T01:32:51.347Z,12.15
2018-01-11T01:35:20.934Z,14.02
2018-01-11T01:37:50.450Z,12.27
2018-01-11T01:40:19.990Z,14.68
2018-01-11T01:42:49.472Z,12.10
2018-01-11T01:45:18.989Z,12.20
2018-01-11T01:47:48.476Z,11.77
2018-01-11T01:50:17.982Z,11.07
2018-01-11T01:52:47.512Z,11.70
2018-01-11T01:55:17.017Z,12.15
2018-01-11T01:57:46.707Z,12.55
2018-01-11T02:00:16.211Z,12.52
2018-01-11T02:02:45.731Z,13.23
2018-01-11T02:05:15.243Z,13.05
2018-01-11T02:07:44.739Z,13.38
2018-01-11T02:10:14.208Z,12.13
2018-01-11T02:12:43.706Z,12.85
2018-01-11T02:15:13.181Z,11.82
2018-01-11T02:17:42.832Z,10.65
2018-01-11T02:20:12.326Z,10.80
2018-01-11T02:22:41.842Z,13.90
2018-01-11T02:25:11.440Z,12.45
2018-01-11T02:27:40.958Z,12.05
2018-01-11T02:30:10.463Z,10.80
2018-01-11T02:32:39.957Z,13.20
2018-01-11T02:35:09.463Z,13.13
2018-01-11T02:37:38.958Z,12.50
2018-01-11T02:40:08.474Z,12.90
2018-01-11T02:42:37.950Z,12.68
2018-01-11T02:45:07.475Z,15.07
2018-01-11T02:47:37.002Z,14.00
2018-01-11T02:50:06.471Z,15.25
2018-01-11T02:52:35.991Z,13.62
2018-01-11T02:55:05.497Z,12.45
2018-01-11T02:57:34.996Z,12.93
2018-01-11T03:00:04.519Z,12.73
2018-01-11T03:02:34.013Z,12.98
2018-01-11T03:05:03.496Z,12.07
2018-01-11T03:07:33.000Z,12.80
2018-01-11T03:10:02.503Z,12.75
2018-01-11T03:12:32.033Z,13.50
2018-01-11T03:15:01.636Z,14.75
2018-01-11T03:17:31.082Z,14.48
2018-01-11T03:20:00.622Z,14.75
2018-01-11T03:22:30.093Z,14.70
2018-01-11T03:24:59.609Z,14.45
2018-01-11T03:27:29.126Z,14.35
2018-01-11T03:29:58.553Z,13.45
2018-01-11T03:32:28.121Z,14.35
2018-01-11T03:34:57.587Z,12.82
2018-01-11T03:37:27.121Z,14.18
2018-01-11T03:39:56.634Z,12.13
2018-01-11T03:42:26.171Z,14.60
2018-01-11T03:44:55.679Z,14.15
2018-01-11T03:47:25.206Z,14.02
2018-01-11T03:49:54.716Z,14.35
2018-01-11T03:52:24.241Z,12.73
2018-01-11T03:54:53.698Z,13.13
2018-01-11T03:57:23.261Z,14.10
2018-01-11T03:59:53.590Z,13.35
2018-01-11T04:02:23.069Z,13.73
2018-01-11T04:04:52.562Z,13.38
2018-01-11T04:07:22.054Z,12.70
2018-01-11T04:09:51.614Z,12.07
2018-01-11T04:12:21.071Z,12.05
2018-01-11T04:14:50.599Z,11.90
2018-01-11T04:17:20.072Z,10.82
2018-01-11T04:19:49.628Z,11.60
2018-01-11T04:22:19.101Z,11.43
2018-01-11T04:24:48.617Z,12.20
2018-01-11T04:29:53.836Z,11.15
2018-01-11T04:32:23.299Z,11.48
2018-01-11T04:34:52.801Z,10.15
2018-01-11T04:37:22.312Z,11.15
2018-01-11T04:39:51.799Z,12.10
2018-01-11T04:42:21.308Z,12.00
2018-01-11T04:44:50.802Z,12.40
2018-01-11T04:47:20.355Z,12.37
2018-01-11T04:49:49.879Z,11.38
2018-01-11T04:52:19.357Z,10.45
2018-01-11T04:54:48.871Z,10.85
2018-01-11T04:57:18.366Z,11.50
2018-01-11T04:59:47.880Z,10.93
2018-01-11T05:02:17.391Z,10.25
2018-01-11T05:04:46.893Z,9.48
2018-01-11T05:07:16.392Z,9.32
2018-01-11T05:09:45.925Z,14.52
2018-01-11T05:12:15.421Z,17.30
2018-01-11T05:14:44.918Z,16.60
2018-01-11T05:17:14.523Z,17.05
2018-01-11T05:19:44.030Z,14.25
2018-01-11T05:22:13.533Z,16.40
2018-01-11T05:24:43.032Z,14.55
2018-01-11T05:27:12.513Z,10.77
2018-01-11T05:29:42.040Z,11.00
2018-01-11T05:32:11.503Z,10.98
2018-01-11T05:34:40.992Z,13.30
2018-01-11T05:37:10.496Z,13.57
2018-01-11T05:39:40.036Z,13.90
2018-01-11T05:42:09.569Z,12.93
2018-01-11T05:44:39.114Z,13.05
2018-01-11T05:47:08.614Z,13.27
2018-01-11T05:49:38.107Z,14.68
2018-01-11T05:52:07.665Z,13.07
2018-01-11T05:54:37.147Z,12.32
2018-01-11T05:57:06.624Z,13.50
2018-01-11T05:59:36.194Z,12.95
2018-01-11T06:02:05.685Z,14.60
2018-01-11T06:04:35.234Z,13.45
2018-01-11T06:07:04.721Z,14.80
2018-01-11T06:09:34.247Z,12.90
2018-01-11T06:12:03.767Z,12.13
2018-01-11T06:14:33.272Z,11.77
2018-01-11T06:17:02.838Z,12.95
2018-01-11T06:19:32.308Z,12.00
2018-01-11T06:22:01.816Z,11.77
2018-01-11T06:24:31.353Z,12.10
2018-01-11T06:27:00.809Z,11.50
2018-01-11T06:29:30.323Z,14.05
2018-01-11T06:31:59.814Z,12.50
2018-01-11T06:34:29.500Z,12.32
2018-01-11T06:36:58.974Z,11.35
2018-01-11T06:39:28.483Z,12.05
2018-01-11T06:41:57.998Z,11.35
2018-01-11T06:44:27.473Z,12.90
2018-01-11T06:46:57.019Z,10.52
2018-01-11T06:49:26.534Z,11.35
2018-01-11T06:51:56.054Z,12.45
2018-01-11T06:54:25.539Z,11.27
2018-01-11T06:56:55.086Z,11.68
2018-01-11T06:59:24.536Z,13.07
2018-01-11T07:01:54.061Z,14.10
2018-01-11T07:04:23.556Z,16.17
2018-01-11T07:06:53.073Z,14.55
2018-01-11T07:09:22.576Z,15.27
2018-01-11T07:11:52.067Z,14.43
2018-01-11T07:14:21.563Z,14.52
2018-01-11T07:16:51.067Z,14.25
2018-01-11T07:19:20.546Z,12.90
2018-01-11T07:21:50.089Z,14.07
2018-01-11T07:24:19.638Z,13.18
2018-01-11T07:26:49.099Z,13.15
2018-01-11T07:29:18.615Z,14.50
2018-01-11T07:31:48.099Z,14.45
2018-01-11T07:34:17.664Z,15.68
2018-01-11T07:36:47.153Z,14.30
2018-01-11T07:39:16.635Z,15.10
2018-01-11T07:41:46.213Z,13.52
2018-01-11T07:44:15.644Z,14.35
2018-01-11T07:46:45.221Z,13.93
2018-01-11T07:49:14.708Z,12.95
2018-01-11T07:51:44.203Z,14.75
2018-01-11T07:54:13.707Z,16.65
2018-01-11T07:56:43.227Z,17.55
2018-01-11T07:59:12.710Z,17.55
2018-01-11T08:01:42.233Z,16.60
2018-01-11T08:04:11.719Z,17.80
2018-01-11T08:06:41.252Z,18.05
2018-01-11T08:09:10.795Z,18.00
2018-01-11T08:11:40.262Z,20.60
2018-01-11T08:14:09.784Z,19.85
2018-01-11T08:16:39.283Z,15.57
2018-01-11T08:19:08.756Z,18.17
2018-01-11T08:21:38.259Z,20.58
2018-01-11T08:24:07.784Z,18.95
2018-01-11T08:26:37.268Z,16.35
2018-01-11T08:29:06.795Z,17.30
2018-01-11T08:31:36.263Z,15.43
2018-01-11T08:34:05.833Z,14.02
2018-01-11T08:36:35.338Z,13.00
2018-01-11T08:39:04.813Z,13.15
2018-01-11T08:41:34.320Z,13.18
2018-01-11T08:44:04.089Z,12.70
2018-01-11T08:46:33.620Z,11.68
2018-01-11T08:49:03.122Z,12.10
2018-01-11T08:51:32.668Z,11.25
2018-01-11T08:54:02.172Z,11.25
2018-01-11T08:56:32.063Z,13.10
2018-01-11T08:59:01.602Z,12.35
2018-01-11T09:01:31.277Z,12.00
2018-01-11T09:04:00.803Z,11.10
2018-01-11T09:06:30.438Z,11.52
2018-01-11T09:09:00.281Z,11.35
2018-01-11T09:11:30.016Z,12.52
2018-01-11T09:13:59.645Z,11.23
2018-01-11T09:16:29.275Z,12.05
2018-01-11T09:18:58.816Z,12.48
2018-01-11T09:21:28.386Z,9.98
2018-01-11T09:23:57.923Z,13.30
2018-01-11T09:26:27.432Z,10.57
2018-01-11T09:28:56.977Z,11.30
2018-01-11T09:31:26.511Z,11.20
2018-01-11T09:33:56.023Z,12.13
2018-01-11T09:36:25.520Z,12.90
2018-01-11T09:38:55.030Z,11.63
2018-01-11T09:41:24.510Z,11.30
2018-01-11T09:43:54.017Z,12.60
2018-01-11T09:46:23.511Z,11.52
2018-01-11T09:48:53.072Z,11.98
2018-01-11T09:51:22.518Z,12.80
2018-01-11T09:53:52.030Z,12.70
2018-01-11T09:56:21.518Z,12.02
2018-01-11T09:58:51.037Z,10.77
2018-01-11T10:01:20.539Z,8.52
2018-01-11T10:03:50.033Z,8.85
2018-01-11T10:06:19.559Z,9.60
2018-01-11T10:08:49.057Z,8.48
2018-01-11T10:11:18.500Z,7.87
2018-01-11T10:13:47.991Z,9.48
2018-01-11T10:16:17.565Z,8.07
2018-01-11T10:18:47.024Z,9.23
2018-01-11T10:21:16.534Z,9.70
2018-01-11T10:23:46.004Z,9.25
2018-01-11T10:26:15.505Z,11.00
2018-01-11T10:28:45.010Z,13.70
2018-01-11T10:31:14.533Z,16.45
2018-01-11T10:33:44.013Z,14.32
2018-01-11T10:36:13.491Z,12.75
2018-01-11T10:38:43.011Z,12.45
2018-01-11T10:41:12.521Z,11.63
2018-01-11T10:43:42.030Z,9.98
2018-01-11T10:46:11.514Z,12.48
2018-01-11T10:48:41.039Z,15.00
2018-01-11T10:51:10.547Z,12.13
2018-01-11T10:53:40.025Z,13.45
2018-01-11T10:56:09.533Z,11.27
2018-01-11T10:58:39.050Z,11.05
2018-01-11T11:01:14.207Z,14.98
2018-01-11T11:03:43.729Z,40.72
2018-01-11T11:06:13.249Z,26.15
2018-01-11T11:08:42.722Z,15.25
2018-01-11T11:11:12.222Z,11.93
2018-01-11T11:13:41.716Z,9.15
2018-01-11T11:16:11.325Z,9.63
2018-01-11T11:18:40.829Z,8.52
2018-01-11T11:21:10.314Z,9.95
2018-01-11T11:23:39.824Z,9.35
2018-01-11T11:26:09.273Z,10.52
2018-01-11T11:28:38.801Z,9.80
2018-01-11T11:31:08.293Z,10.25
2018-01-11T11:33:37.776Z,10.73
2018-01-11T11:36:07.259Z,9.82
2018-01-11T11:38:36.732Z,10.25
2018-01-11T11:41:06.251Z,9.30
2018-01-11T11:43:35.780Z,10.13
2018-01-11T11:46:05.240Z,10.45
2018-01-11T11:48:34.736Z,9.63
2018-01-11T11:51:04.317Z,10.60
2018-01-11T11:53:33.807Z,8.73
2018-01-11T11:56:03.303Z,11.40
2018-01-11T11:58:32.800Z,12.13
2018-01-11T12:01:02.311Z,14.73
2018-01-11T12:03:31.828Z,11.15
2018-01-11T12:06:01.347Z,10.05
2018-01-11T12:08:30.842Z,11.35
2018-01-11T12:11:00.345Z,11.68
2018-01-11T12:13:29.853Z,10.90
2018-01-11T12:15:59.407Z,12.77
2018-01-11T12:18:28.864Z,14.25
2018-01-11T12:20:58.360Z,16.05
2018-01-11T12:23:27.822Z,17.98
2018-01-11T12:25:57.381Z,17.05
2018-01-11T12:28:26.864Z,13.80
2018-01-11T12:30:56.369Z,15.30
2018-01-11T12:33:25.853Z,15.90
2018-01-11T12:35:55.359Z,14.43
2018-01-11T12:38:24.829Z,15.80
2018-01-11T12:40:54.381Z,23.40
2018-01-11T12:43:23.868Z,23.98
2018-01-11T12:45:53.400Z,20.83
2018-01-11T12:48:22.852Z,25.62
2018-01-11T12:50:52.360Z,15.10
2018-01-11T12:53:21.870Z,15.13
2018-01-11T12:55:51.360Z,13.32
2018-01-11T12:58:20.901Z,16.10
2018-01-11T13:00:50.408Z,19.50
2018-01-11T13:03:19.894Z,23.15
2018-01-11T13:05:49.427Z,19.65
2018-01-11T13:08:18.950Z,14.87
2018-01-11T13:10:48.451Z,14.48
2018-01-11T13:13:17.960Z,13.00
2018-01-11T13:15:47.422Z,11.15
2018-01-11T13:18:16.950Z,12.35
2018-01-11T13:20:46.508Z,10.75
2018-01-11T13:23:15.993Z,14.30
2018-01-11T13:25:45.520Z,14.25
2018-01-11T13:28:15.019Z,13.20
2018-01-11T13:30:44.539Z,13.20
2018-01-11T13:33:14.082Z,13.73
2018-01-11T13:35:43.591Z,13.52
2018-01-11T13:38:13.075Z,14.90
2018-01-11T13:40:42.590Z,13.10
2018-01-11T13:43:12.089Z,14.02
2018-01-11T13:45:41.621Z,13.73
2018-01-11T13:48:11.120Z,14.23
2018-01-11T13:50:40.683Z,15.48
2018-01-11T13:53:10.295Z,15.77
2018-01-11T13:55:39.794Z,15.45
2018-01-11T13:58:09.397Z,16.23
2018-01-11T14:00:38.895Z,16.10
2018-01-11T14:03:08.403Z,15.80
2018-01-11T14:05:37.917Z,17.35
2018-01-11T14:08:07.441Z,16.67
2018-01-11T14:10:36.978Z,19.08
2018-01-11T14:13:06.508Z,15.93
2018-01-11T14:15:35.971Z,15.27
2018-01-11T14:18:05.485Z,16.92
2018-01-11T14:20:34.984Z,15.52
2018-01-11T14:23:04.525Z,15.90
2018-01-11T14:25:34.010Z,15.15
2018-01-11T14:28:03.537Z,15.63
2018-01-11T14:30:33.027Z,14.43
2018-01-11T14:33:02.570Z,15.95
2018-01-11T14:35:32.043Z,15.25
2018-01-11T14:38:01.540Z,16.08
2018-01-11T14:40:31.104Z,16.55
2018-01-11T14:43:00.581Z,16.35
2018-01-11T14:45:30.076Z,17.10
2018-01-11T14:47:59.557Z,17.60
2018-01-11T14:50:29.079Z,15.60
2018-01-11T14:52:58.697Z,15.73
2018-01-11T14:55:28.235Z,15.95
2018-01-11T14:57:57.736Z,18.35
2018-01-11T15:00:27.272Z,21.42
2018-01-11T15:02:56.855Z,18.92
2018-01-11T15:05:26.401Z,23.85
2018-01-11T15:07:55.861Z,23.73
2018-01-11T15:10:25.375Z,28.10
2018-01-11T15:12:54.858Z,19.70
2018-01-11T15:15:24.407Z,16.73
2018-01-11T15:17:53.910Z,18.10
2018-01-11T15:20:23.444Z,17.10
2018-01-11T15:22:52.977Z,17.70
2018-01-11T15:25:22.468Z,18.60
2018-01-11T15:27:52.481Z,19.45
2018-01-11T15:30:22.066Z,18.95
2018-01-11T15:32:51.580Z,16.62
2018-01-11T15:35:21.057Z,18.92
2018-01-11T15:37:50.608Z,17.90
2018-01-11T15:40:20.110Z,17.83
2018-01-11T15:42:49.621Z,19.20
2018-01-11T15:45:19.145Z,20.00
2018-01-11T15:47:48.660Z,19.62
2018-01-11T15:50:18.128Z,21.02
2018-01-11T15:52:47.665Z,19.80
2018-01-11T15:55:17.148Z,21.00
2018-01-11T15:57:46.697Z,18.35
2018-01-11T16:00:16.214Z,16.92
2018-01-11T16:02:45.717Z,19.10
2018-01-11T16:05:15.228Z,20.20
2018-01-11T16:07:44.756Z,17.45
2018-01-11T16:10:14.249Z,21.23
2018-01-11T16:12:43.751Z,17.62
2018-01-11T16:15:13.268Z,20.70
2018-01-11T16:17:42.770Z,16.27
2018-01-11T16:20:12.352Z,23.12
2018-01-11T16:22:41.835Z,20.55
2018-01-11T16:25:11.358Z,20.25
2018-01-11T16:27:40.830Z,20.50
2018-01-11T16:30:10.386Z,18.37
2018-01-11T16:32:39.846Z,19.55
2018-01-11T16:35:09.364Z,18.10
2018-01-11T16:37:38.846Z,16.77
2018-01-11T16:40:08.342Z,18.60
2018-01-11T16:42:37.897Z,19.52
2018-01-11T16:45:07.403Z,18.33
2018-01-11T16:47:36.916Z,20.88
2018-01-11T16:50:06.489Z,18.58
2018-01-11T16:52:36.016Z,18.98
2018-01-11T16:55:05.572Z,19.55
2018-01-11T16:57:35.099Z,19.50
2018-01-11T17:00:04.727Z,20.30
2018-01-11T17:02:34.297Z,21.62
2018-01-11T17:05:03.762Z,21.35
2018-01-11T17:07:33.262Z,21.27
2018-01-11T17:10:02.776Z,19.45
2018-01-11T17:12:32.307Z,21.10
2018-01-11T17:15:01.796Z,17.25
2018-01-11T17:17:31.351Z,20.27
2018-01-11T17:20:00.835Z,22.35
2018-01-11T17:22:30.507Z,21.67
2018-01-11T17:25:00.043Z,19.37
2018-01-11T17:27:29.525Z,19.48
2018-01-11T17:29:59.040Z,19.20
2018-01-11T17:32:28.544Z,18.20
2018-01-11T17:34:58.055Z,17.62
2018-01-11T17:37:27.746Z,16.92
2018-01-11T17:39:57.259Z,18.17
2018-01-11T17:42:26.762Z,18.02
2018-01-11T17:44:56.281Z,18.23
2018-01-11T17:47:25.800Z,18.65
2018-01-11T17:49:55.373Z,17.67
2018-01-11T17:52:24.881Z,18.55
2018-01-11T17:54:54.424Z,21.23
2018-01-11T17:57:23.909Z,19.05
2018-01-11T17:59:53.399Z,19.48
2018-01-11T18:02:22.909Z,19.17
2018-01-11T18:04:52.449Z,19.48
2018-01-11T18:07:21.939Z,19.98
2018-01-11T18:09:51.472Z,19.12
2018-01-11T18:12:20.984Z,19.55
2018-01-11T18:14:50.500Z,15.73
2018-01-11T18:17:20.048Z,18.12
2018-01-11T18:19:49.568Z,18.52
2018-01-11T18:22:19.097Z,17.00
2018-01-11T18:24:48.635Z,16.02
2018-01-11T18:27:18.170Z,15.20
2018-01-11T18:29:47.669Z,18.10
2018-01-11T18:32:17.222Z,16.08
2018-01-11T18:34:46.734Z,16.05
2018-01-11T18:37:16.248Z,15.73
2018-01-11T18:39:45.763Z,15.13
2018-01-11T18:42:15.387Z,15.65
2018-01-11T18:44:44.883Z,16.30
2018-01-11T18:47:14.393Z,16.25
2018-01-11T18:49:43.883Z,17.80
2018-01-11T18:52:13.386Z,19.45
2018-01-11T18:54:42.910Z,19.02
2018-01-11T18:57:12.582Z,19.20
2018-01-11T18:59:42.133Z,18.73
2018-01-11T19:02:11.630Z,18.40
2018-01-11T19:04:41.120Z,17.05
2018-01-11T19:07:10.702Z,16.45
2018-01-11T19:09:40.167Z,16.00
2018-01-11T19:12:09.728Z,16.77
2018-01-11T19:14:39.262Z,16.80
2018-01-11T19:17:08.801Z,16.33
2018-01-11T19:19:38.386Z,16.17
2018-01-11T19:22:07.928Z,18.60
2018-01-11T19:24:37.463Z,20.45
2018-01-11T19:27:06.983Z,16.75
2018-01-11T19:29:36.575Z,20.10
2018-01-11T19:32:06.083Z,20.67
2018-01-11T19:34:36.412Z,24.58
2018-01-11T19:37:05.889Z,21.70
2018-01-11T19:39:35.408Z,20.40
2018-01-11T19:42:04.961Z,21.85
2018-01-11T19:44:34.470Z,23.27
2018-01-11T19:47:04.120Z,19.73
2018-01-11T19:49:33.621Z,28.40
2018-01-11T19:52:03.153Z,22.50
2018-01-11T19:54:32.688Z,18.75
2018-01-11T19:57:02.201Z,17.98
2018-01-11T19:59:31.733Z,18.40
2018-01-11T20:02:01.264Z,19.98
2018-01-11T20:04:30.777Z,18.48
2018-01-11T20:07:00.327Z,21.45
2018-01-11T20:09:29.846Z,20.12
2018-01-11T20:11:59.482Z,21.60
2018-01-11T20:14:29.007Z,20.92
2018-01-11T20:16:58.679Z,21.83
2018-01-11T20:19:28.212Z,26.55
2018-01-11T20:21:57.799Z,24.05
2018-01-11T20:24:27.300Z,24.42
2018-01-11T20:26:56.816Z,25.20
2018-01-11T20:29:26.334Z,22.90
2018-01-11T20:31:55.840Z,21.02
2018-01-11T20:34:25.373Z,21.30
2018-01-11T20:36:54.915Z,20.05
2018-01-11T20:39:24.503Z,22.85
2018-01-11T20:41:53.993Z,19.98
2018-01-11T20:44:23.575Z,20.15
2018-01-11T20:46:53.066Z,22.02
2018-01-11T20:49:22.615Z,22.45
2018-01-11T20:51:52.216Z,23.25
2018-01-11T20:54:21.802Z,22.08
2018-01-11T20:56:51.342Z,20.10
2018-01-11T20:59:20.878Z,20.12
2018-01-11T21:01:50.443Z,20.23
2018-01-11T21:04:19.979Z,17.67
2018-01-11T21:06:49.618Z,20.52
2018-01-11T21:09:19.158Z,19.85
2018-01-11T21:11:50.039Z,19.45
2018-01-11T21:14:19.544Z,23.60
2018-01-11T21:16:49.219Z,20.27
2018-01-11T21:19:19.046Z,22.62
2018-01-11T21:21:48.601Z,29.37
2018-01-11T21:24:18.148Z,25.62
2018-01-11T21:26:47.665Z,24.08
2018-01-11T21:29:17.187Z,22.73
2018-01-11T21:31:46.722Z,22.00
2018-01-11T21:34:16.302Z,21.40
2018-01-11T21:36:45.830Z,20.17
2018-01-11T21:39:15.321Z,18.37
2018-01-11T21:41:44.937Z,19.05
2018-01-11T21:44:14.455Z,17.37
2018-01-11T21:46:43.918Z,18.60
2018-01-11T21:49:13.437Z,18.50
2018-01-11T21:51:42.911Z,16.77
2018-01-11T21:54:12.440Z,17.75
2018-01-11T21:56:42.030Z,19.00
2018-01-11T21:59:11.557Z,18.95
2018-01-11T22:01:41.107Z,19.52
2018-01-11T22:04:10.632Z,17.83
2018-01-11T22:06:40.093Z,18.37
2018-01-11T22:09:09.605Z,17.20
2018-01-11T22:11:39.119Z,17.95
2018-01-11T22:14:08.653Z,18.58
2018-01-11T22:16:38.124Z,19.30
2018-01-11T22:19:07.661Z,17.75
2018-01-11T22:21:37.200Z,17.92
2018-01-11T22:24:06.742Z,16.85
2018-01-11T22:26:36.186Z,18.92
2018-01-11T22:29:05.709Z,15.82
2018-01-11T22:31:35.196Z,17.12
2018-01-11T22:34:04.738Z,19.83
2018-01-11T22:36:34.210Z,17.37
2018-01-11T22:39:03.703Z,18.48
2018-01-11T22:41:33.219Z,16.90
2018-01-11T22:44:02.739Z,16.77
2018-01-11T22:46:32.319Z,20.80
2018-01-11T22:49:01.793Z,16.55
2018-01-11T22:51:31.355Z,18.73
2018-01-11T22:54:00.879Z,17.42
2018-01-11T22:56:30.378Z,17.65
2018-01-11T22:58:59.886Z,17.70
2018-01-11T23:01:29.404Z,17.02
2018-01-11T23:03:58.923Z,18.33
2018-01-11T23:06:28.399Z,17.85
2018-01-11T23:08:57.862Z,15.30
2018-01-11T23:11:33.230Z,17.08
2018-01-11T23:14:02.692Z,17.73
2018-01-11T23:16:32.209Z,16.83
2018-01-11T23:19:01.712Z,17.73
2018-01-11T23:21:31.245Z,17.23
2018-01-11T23:24:00.748Z,17.65
2018-01-11T23:26:30.240Z,17.50
2018-01-11T23:28:59.750Z,18.70
2018-01-11T23:31:29.270Z,18.60
2018-01-11T23:33:58.773Z,16.20
2018-01-11T23:36:28.310Z,16.83
2018-01-11T23:38:57.813Z,17.35
2018-01-11T23:41:27.289Z,17.05
2018-01-11T23:43:56.808Z,17.58
2018-01-11T23:46:26.316Z,17.73
2018-01-11T23:48:55.825Z,17.27
2018-01-11T23:51:25.292Z,18.65
2018-01-11T23:53:54.894Z,18.42
2018-01-11T23:56:24.366Z,17.00
2018-01-11T23:58:54.080Z,17.80
